sensor_id;sensor_type;location;lat;lon;timestamp;P1;durP1;ratioP1;P2;durP2;ratioP2
46561;SDS011;32289;42.688;23.330;2023-02-28T00:01:50;9.32;;;4.07;;
46561;SDS011;32289;42.688;23.330;2023-02-28T00:05:31;11.63;;;4.53;;
46561;SDS011;32289;42.688;23.330;2023-02-28T00:09:12;10.20;;;5.07;;
46561;SDS011;32289;42.688;23.330;2023-02-28T00:12:53;11.40;;;4.80;;
46561;SDS011;32289;42.688;23.330;2023-02-28T00:16:36;9.05;;;4.07;;
46561;SDS011;32289;42.688;23.330;2023-02-28T00:20:17;10.95;;;4.40;;
46561;SDS011;32289;42.688;23.330;2023-02-28T00:23:59;14.52;;;5.10;;
46561;SDS011;32289;42.688;23.330;2023-02-28T00:27:40;9.43;;;3.78;;
46561;SDS011;32289;42.688;23.330;2023-02-28T00:31:21;12.45;;;4.43;;
46561;SDS011;32289;42.688;23.330;2023-02-28T00:35:02;13.38;;;5.05;;
46561;SDS011;32289;42.688;23.330;2023-02-28T00:38:43;14.98;;;5.25;;
46561;SDS011;32289;42.688;23.330;2023-02-28T00:42:23;14.45;;;5.03;;
46561;SDS011;32289;42.688;23.330;2023-02-28T00:46:05;14.05;;;5.82;;
46561;SDS011;32289;42.688;23.330;2023-02-28T00:49:46;12.60;;;4.82;;
46561;SDS011;32289;42.688;23.330;2023-02-28T00:53:27;12.73;;;5.38;;
46561;SDS011;32289;42.688;23.330;2023-02-28T00:57:08;16.67;;;5.43;;
46561;SDS011;32289;42.688;23.330;2023-02-28T01:00:48;15.00;;;5.03;;
46561;SDS011;32289;42.688;23.330;2023-02-28T01:04:30;16.45;;;5.75;;
46561;SDS011;32289;42.688;23.330;2023-02-28T01:08:11;12.23;;;5.35;;
46561;SDS011;32289;42.688;23.330;2023-02-28T01:11:53;14.38;;;6.68;;
46561;SDS011;32289;42.688;23.330;2023-02-28T01:15:34;17.77;;;6.78;;
46561;SDS011;32289;42.688;23.330;2023-02-28T01:19:15;13.38;;;6.82;;
46561;SDS011;32289;42.688;23.330;2023-02-28T01:22:56;23.08;;;6.57;;
46561;SDS011;32289;42.688;23.330;2023-02-28T01:26:36;13.95;;;6.22;;
46561;SDS011;32289;42.688;23.330;2023-02-28T01:30:17;14.85;;;6.75;;
46561;SDS011;32289;42.688;23.330;2023-02-28T01:33:58;14.70;;;6.80;;
46561;SDS011;32289;42.688;23.330;2023-02-28T01:37:39;13.18;;;5.97;;
46561;SDS011;32289;42.688;23.330;2023-02-28T01:41:27;10.85;;;5.93;;
46561;SDS011;32289;42.688;23.330;2023-02-28T01:49:08;11.20;;;5.75;;
46561;SDS011;32289;42.688;23.330;2023-02-28T01:52:56;14.95;;;6.22;;
46561;SDS011;32289;42.688;23.330;2023-02-28T01:56:52;25.77;;;8.05;;
46561;SDS011;32289;42.688;23.330;2023-02-28T02:00:49;18.52;;;6.47;;
46561;SDS011;32289;42.688;23.330;2023-02-28T02:04:35;19.23;;;6.78;;
46561;SDS011;32289;42.688;23.330;2023-02-28T02:08:21;14.73;;;6.32;;
46561;SDS011;32289;42.688;23.330;2023-02-28T02:12:11;15.35;;;6.53;;
46561;SDS011;32289;42.688;23.330;2023-02-28T02:31:54;20.65;;;7.18;;
46561;SDS011;32289;42.688;23.330;2023-02-28T02:39:48;17.92;;;6.85;;
46561;SDS011;32289;42.688;23.330;2023-02-28T02:43:38;18.92;;;7.47;;
46561;SDS011;32289;42.688;23.330;2023-02-28T02:47:27;18.88;;;9.13;;
46561;SDS011;32289;42.688;23.330;2023-02-28T02:51:12;21.08;;;8.43;;
46561;SDS011;32289;42.688;23.330;2023-02-28T02:54:55;14.40;;;6.57;;
46561;SDS011;32289;42.688;23.330;2023-02-28T02:58:40;15.75;;;5.88;;
46561;SDS011;32289;42.688;23.330;2023-02-28T03:02:22;18.42;;;5.82;;
46561;SDS011;32289;42.688;23.330;2023-02-28T03:06:06;19.20;;;7.93;;
46561;SDS011;32289;42.688;23.330;2023-02-28T03:09:56;21.23;;;7.55;;
46561;SDS011;32289;42.688;23.330;2023-02-28T03:21:34;20.23;;;8.60;;
46561;SDS011;32289;42.688;23.330;2023-02-28T03:30:32;18.95;;;7.10;;
46561;SDS011;32289;42.688;23.330;2023-02-28T03:34:10;17.30;;;7.40;;
46561;SDS011;32289;42.688;23.330;2023-02-28T03:37:58;13.98;;;6.45;;
46561;SDS011;32289;42.688;23.330;2023-02-28T03:45:30;20.77;;;7.45;;
46561;SDS011;32289;42.688;23.330;2023-02-28T03:49:49;13.05;;;6.03;;
46561;SDS011;32289;42.688;23.330;2023-02-28T03:53:32;15.38;;;7.97;;
46561;SDS011;32289;42.688;23.330;2023-02-28T04:05:21;19.88;;;9.00;;
46561;SDS011;32289;42.688;23.330;2023-02-28T04:09:03;18.63;;;8.77;;
46561;SDS011;32289;42.688;23.330;2023-02-28T04:12:45;22.58;;;7.97;;
46561;SDS011;32289;42.688;23.330;2023-02-28T04:16:26;16.33;;;7.40;;
46561;SDS011;32289;42.688;23.330;2023-02-28T04:20:07;17.75;;;7.70;;
46561;SDS011;32289;42.688;23.330;2023-02-28T04:23:51;19.70;;;8.95;;
46561;SDS011;32289;42.688;23.330;2023-02-28T04:27:32;20.05;;;7.20;;
46561;SDS011;32289;42.688;23.330;2023-02-28T04:31:13;18.42;;;7.28;;
46561;SDS011;32289;42.688;23.330;2023-02-28T04:34:54;21.10;;;7.65;;
46561;SDS011;32289;42.688;23.330;2023-02-28T04:38:38;17.25;;;7.15;;
46561;SDS011;32289;42.688;23.330;2023-02-28T04:42:19;15.55;;;6.90;;
46561;SDS011;32289;42.688;23.330;2023-02-28T04:46:00;19.45;;;7.72;;
46561;SDS011;32289;42.688;23.330;2023-02-28T04:49:42;24.38;;;7.97;;
46561;SDS011;32289;42.688;23.330;2023-02-28T04:53:23;19.52;;;8.73;;
46561;SDS011;32289;42.688;23.330;2023-02-28T04:57:04;19.13;;;8.63;;
46561;SDS011;32289;42.688;23.330;2023-02-28T05:00:44;22.65;;;7.97;;
46561;SDS011;32289;42.688;23.330;2023-02-28T05:04:26;21.13;;;8.10;;
46561;SDS011;32289;42.688;23.330;2023-02-28T05:08:07;25.08;;;8.98;;
46561;SDS011;32289;42.688;23.330;2023-02-28T05:11:49;18.55;;;6.97;;
46561;SDS011;32289;42.688;23.330;2023-02-28T05:15:30;21.83;;;8.07;;
46561;SDS011;32289;42.688;23.330;2023-02-28T05:19:10;21.13;;;7.10;;
46561;SDS011;32289;42.688;23.330;2023-02-28T05:22:51;21.27;;;8.68;;
46561;SDS011;32289;42.688;23.330;2023-02-28T05:26:36;26.20;;;9.48;;
46561;SDS011;32289;42.688;23.330;2023-02-28T05:30:18;25.63;;;8.23;;
46561;SDS011;32289;42.688;23.330;2023-02-28T05:33:59;21.70;;;8.05;;
46561;SDS011;32289;42.688;23.330;2023-02-28T05:37:40;25.95;;;8.63;;
46561;SDS011;32289;42.688;23.330;2023-02-28T05:41:21;21.50;;;9.05;;
46561;SDS011;32289;42.688;23.330;2023-02-28T05:45:07;22.77;;;9.40;;
46561;SDS011;32289;42.688;23.330;2023-02-28T05:48:48;21.48;;;8.43;;
46561;SDS011;32289;42.688;23.330;2023-02-28T05:52:29;30.00;;;8.52;;
46561;SDS011;32289;42.688;23.330;2023-02-28T05:56:10;19.25;;;7.65;;
46561;SDS011;32289;42.688;23.330;2023-02-28T05:59:51;23.95;;;8.07;;
46561;SDS011;32289;42.688;23.330;2023-02-28T06:03:32;23.30;;;8.52;;
46561;SDS011;32289;42.688;23.330;2023-02-28T06:07:12;17.90;;;7.40;;
46561;SDS011;32289;42.688;23.330;2023-02-28T06:10:53;20.08;;;8.57;;
46561;SDS011;32289;42.688;23.330;2023-02-28T06:14:34;23.10;;;8.85;;
46561;SDS011;32289;42.688;23.330;2023-02-28T06:18:15;20.67;;;8.95;;
46561;SDS011;32289;42.688;23.330;2023-02-28T06:21:56;23.00;;;8.02;;
46561;SDS011;32289;42.688;23.330;2023-02-28T06:25:37;26.45;;;9.40;;
46561;SDS011;32289;42.688;23.330;2023-02-28T06:29:17;29.38;;;9.68;;
46561;SDS011;32289;42.688;23.330;2023-02-28T06:32:58;21.73;;;8.85;;
46561;SDS011;32289;42.688;23.330;2023-02-28T06:36:39;25.23;;;10.43;;
46561;SDS011;32289;42.688;23.330;2023-02-28T06:40:21;27.80;;;9.63;;
46561;SDS011;32289;42.688;23.330;2023-02-28T06:44:01;21.80;;;9.70;;
46561;SDS011;32289;42.688;23.330;2023-02-28T06:47:45;23.70;;;9.75;;
46561;SDS011;32289;42.688;23.330;2023-02-28T06:51:32;21.30;;;9.00;;
46561;SDS011;32289;42.688;23.330;2023-02-28T06:55:12;24.73;;;9.00;;
46561;SDS011;32289;42.688;23.330;2023-02-28T06:58:53;21.35;;;9.60;;
46561;SDS011;32289;42.688;23.330;2023-02-28T07:02:34;22.77;;;9.40;;
46561;SDS011;32289;42.688;23.330;2023-02-28T07:06:16;20.30;;;8.93;;
46561;SDS011;32289;42.688;23.330;2023-02-28T07:09:57;21.55;;;9.52;;
46561;SDS011;32289;42.688;23.330;2023-02-28T07:13:38;22.25;;;9.43;;
46561;SDS011;32289;42.688;23.330;2023-02-28T07:17:19;23.80;;;10.13;;
46561;SDS011;32289;42.688;23.330;2023-02-28T07:21:04;20.75;;;9.10;;
46561;SDS011;32289;42.688;23.330;2023-02-28T07:24:46;24.10;;;8.68;;
46561;SDS011;32289;42.688;23.330;2023-02-28T07:28:27;22.23;;;8.82;;
46561;SDS011;32289;42.688;23.330;2023-02-28T07:32:09;22.10;;;8.70;;
46561;SDS011;32289;42.688;23.330;2023-02-28T07:35:49;22.38;;;8.35;;
46561;SDS011;32289;42.688;23.330;2023-02-28T07:39:30;23.35;;;10.57;;
46561;SDS011;32289;42.688;23.330;2023-02-28T07:43:11;26.58;;;9.23;;
46561;SDS011;32289;42.688;23.330;2023-02-28T07:46:51;23.95;;;10.45;;
46561;SDS011;32289;42.688;23.330;2023-02-28T07:50:33;33.55;;;10.55;;
46561;SDS011;32289;42.688;23.330;2023-02-28T07:54:14;21.70;;;9.05;;
46561;SDS011;32289;42.688;23.330;2023-02-28T07:57:56;25.63;;;9.68;;
46561;SDS011;32289;42.688;23.330;2023-02-28T08:01:37;23.85;;;9.90;;
46561;SDS011;32289;42.688;23.330;2023-02-28T08:05:18;26.35;;;10.57;;
46561;SDS011;32289;42.688;23.330;2023-02-28T08:08:59;22.40;;;9.38;;
46561;SDS011;32289;42.688;23.330;2023-02-28T08:12:40;19.85;;;9.20;;
46561;SDS011;32289;42.688;23.330;2023-02-28T08:16:20;25.90;;;10.88;;
46561;SDS011;32289;42.688;23.330;2023-02-28T08:20:03;29.27;;;10.20;;
46561;SDS011;32289;42.688;23.330;2023-02-28T08:23:46;19.05;;;9.63;;
46561;SDS011;32289;42.688;23.330;2023-02-28T08:27:28;23.08;;;10.50;;
46561;SDS011;32289;42.688;23.330;2023-02-28T08:31:09;20.85;;;10.23;;
46561;SDS011;32289;42.688;23.330;2023-02-28T08:34:51;21.55;;;9.52;;
46561;SDS011;32289;42.688;23.330;2023-02-28T08:38:32;23.70;;;9.70;;
46561;SDS011;32289;42.688;23.330;2023-02-28T08:42:13;23.70;;;10.43;;
46561;SDS011;32289;42.688;23.330;2023-02-28T08:45:57;21.15;;;10.27;;
46561;SDS011;32289;42.688;23.330;2023-02-28T08:49:38;20.23;;;9.25;;
46561;SDS011;32289;42.688;23.330;2023-02-28T08:53:18;20.63;;;9.07;;
46561;SDS011;32289;42.688;23.330;2023-02-28T08:56:59;21.05;;;10.15;;
46561;SDS011;32289;42.688;23.330;2023-02-28T09:00:40;18.98;;;9.00;;
46561;SDS011;32289;42.688;23.330;2023-02-28T09:04:21;22.08;;;9.63;;
46561;SDS011;32289;42.688;23.330;2023-02-28T09:08:02;13.95;;;6.68;;
46561;SDS011;32289;42.688;23.330;2023-02-28T09:11:43;21.63;;;7.43;;
46561;SDS011;32289;42.688;23.330;2023-02-28T09:15:23;14.07;;;6.75;;
46561;SDS011;32289;42.688;23.330;2023-02-28T09:19:04;16.33;;;6.32;;
46561;SDS011;32289;42.688;23.330;2023-02-28T09:22:45;18.77;;;6.57;;
46561;SDS011;32289;42.688;23.330;2023-02-28T09:26:26;11.93;;;6.90;;
46561;SDS011;32289;42.688;23.330;2023-02-28T09:30:08;17.27;;;7.32;;
46561;SDS011;32289;42.688;23.330;2023-02-28T09:33:49;20.67;;;6.18;;
46561;SDS011;32289;42.688;23.330;2023-02-28T09:37:31;13.02;;;6.28;;
46561;SDS011;32289;42.688;23.330;2023-02-28T09:41:13;12.10;;;5.50;;
46561;SDS011;32289;42.688;23.330;2023-02-28T09:44:57;14.35;;;6.05;;
46561;SDS011;32289;42.688;23.330;2023-02-28T09:48:41;18.23;;;5.78;;
46561;SDS011;32289;42.688;23.330;2023-02-28T09:52:29;12.20;;;5.75;;
46561;SDS011;32289;42.688;23.330;2023-02-28T09:56:15;14.57;;;5.63;;
46561;SDS011;32289;42.688;23.330;2023-02-28T10:08:26;17.42;;;6.30;;
46561;SDS011;32289;42.688;23.330;2023-02-28T10:12:11;15.80;;;6.55;;
46561;SDS011;32289;42.688;23.330;2023-02-28T10:15:58;17.23;;;6.13;;
46561;SDS011;32289;42.688;23.330;2023-02-28T10:23:47;15.55;;;5.00;;
46561;SDS011;32289;42.688;23.330;2023-02-28T10:27:31;16.85;;;4.82;;
46561;SDS011;32289;42.688;23.330;2023-02-28T10:31:17;10.65;;;5.45;;
46561;SDS011;32289;42.688;23.330;2023-02-28T10:38:49;11.55;;;5.78;;
46561;SDS011;32289;42.688;23.330;2023-02-28T10:42:30;10.63;;;5.13;;
46561;SDS011;32289;42.688;23.330;2023-02-28T10:46:15;12.95;;;5.72;;
46561;SDS011;32289;42.688;23.330;2023-02-28T10:50:05;17.38;;;5.38;;
46561;SDS011;32289;42.688;23.330;2023-02-28T10:53:50;15.60;;;5.63;;
46561;SDS011;32289;42.688;23.330;2023-02-28T10:57:38;11.00;;;5.18;;
46561;SDS011;32289;42.688;23.330;2023-02-28T11:01:23;13.35;;;5.07;;
46561;SDS011;32289;42.688;23.330;2023-02-28T11:05:52;17.40;;;5.28;;
46561;SDS011;32289;42.688;23.330;2023-02-28T11:09:22;15.75;;;5.32;;
46561;SDS011;32289;42.688;23.330;2023-02-28T11:13:12;13.35;;;5.57;;
46561;SDS011;32289;42.688;23.330;2023-02-28T11:17:00;9.38;;;5.25;;
46561;SDS011;32289;42.688;23.330;2023-02-28T11:20:54;15.13;;;5.40;;
46561;SDS011;32289;42.688;23.330;2023-02-28T11:24:40;15.63;;;6.07;;
46561;SDS011;32289;42.688;23.330;2023-02-28T11:28:25;11.57;;;6.05;;
46561;SDS011;32289;42.688;23.330;2023-02-28T11:35:53;11.70;;;5.35;;
46561;SDS011;32289;42.688;23.330;2023-02-28T11:39:42;8.93;;;5.20;;
46561;SDS011;32289;42.688;23.330;2023-02-28T11:51:47;14.48;;;7.03;;
46561;SDS011;32289;42.688;23.330;2023-02-28T11:55:54;14.00;;;6.18;;
46561;SDS011;32289;42.688;23.330;2023-02-28T12:03:49;13.82;;;5.40;;
46561;SDS011;32289;42.688;23.330;2023-02-28T12:19:58;15.27;;;5.82;;
46561;SDS011;32289;42.688;23.330;2023-02-28T12:27:50;11.25;;;5.22;;
46561;SDS011;32289;42.688;23.330;2023-02-28T12:31:36;10.07;;;5.90;;
46561;SDS011;32289;42.688;23.330;2023-02-28T12:35:23;13.15;;;5.63;;
46561;SDS011;32289;42.688;23.330;2023-02-28T12:39:19;14.30;;;6.22;;
46561;SDS011;32289;42.688;23.330;2023-02-28T12:43:09;10.65;;;4.55;;
46561;SDS011;32289;42.688;23.330;2023-02-28T12:46:53;14.25;;;5.50;;
46561;SDS011;32289;42.688;23.330;2023-02-28T12:50:38;10.05;;;5.13;;
46561;SDS011;32289;42.688;23.330;2023-02-28T12:54:24;11.75;;;6.15;;
46561;SDS011;32289;42.688;23.330;2023-02-28T13:09:53;13.55;;;5.07;;
46561;SDS011;32289;42.688;23.330;2023-02-28T13:13:36;13.13;;;4.85;;
46561;SDS011;32289;42.688;23.330;2023-02-28T13:17:18;13.82;;;4.57;;
46561;SDS011;32289;42.688;23.330;2023-02-28T13:21:00;13.10;;;4.70;;
46561;SDS011;32289;42.688;23.330;2023-02-28T13:29:20;12.93;;;4.95;;
46561;SDS011;32289;42.688;23.330;2023-02-28T13:33:17;9.27;;;4.82;;
46561;SDS011;32289;42.688;23.330;2023-02-28T13:45:20;12.18;;;4.57;;
46561;SDS011;32289;42.688;23.330;2023-02-28T14:10:05;11.75;;;4.28;;
46561;SDS011;32289;42.688;23.330;2023-02-28T14:13:48;13.32;;;5.35;;
46561;SDS011;32289;42.688;23.330;2023-02-28T14:17:29;13.70;;;4.97;;
46561;SDS011;32289;42.688;23.330;2023-02-28T14:21:13;14.90;;;4.82;;
46561;SDS011;32289;42.688;23.330;2023-02-28T14:34:03;14.60;;;4.68;;
46561;SDS011;32289;42.688;23.330;2023-02-28T14:37:23;10.35;;;4.75;;
46561;SDS011;32289;42.688;23.330;2023-02-28T14:41:19;7.35;;;3.97;;
46561;SDS011;32289;42.688;23.330;2023-02-28T14:45:18;16.73;;;4.97;;
46561;SDS011;32289;42.688;23.330;2023-02-28T14:49:00;13.00;;;4.60;;
46561;SDS011;32289;42.688;23.330;2023-02-28T14:52:42;8.35;;;4.20;;
46561;SDS011;32289;42.688;23.330;2023-02-28T14:56:24;13.38;;;4.55;;
46561;SDS011;32289;42.688;23.330;2023-02-28T15:00:15;12.10;;;4.68;;
46561;SDS011;32289;42.688;23.330;2023-02-28T15:04:11;13.35;;;4.50;;
46561;SDS011;32289;42.688;23.330;2023-02-28T15:08:16;8.82;;;3.97;;
46561;SDS011;32289;42.688;23.330;2023-02-28T15:11:58;7.90;;;4.05;;
46561;SDS011;32289;42.688;23.330;2023-02-28T15:15:40;11.02;;;4.32;;
46561;SDS011;32289;42.688;23.330;2023-02-28T15:19:48;10.88;;;3.92;;
46561;SDS011;32289;42.688;23.330;2023-02-28T15:23:32;9.82;;;4.35;;
46561;SDS011;32289;42.688;23.330;2023-02-28T15:27:18;14.10;;;4.60;;
46561;SDS011;32289;42.688;23.330;2023-02-28T15:31:17;9.80;;;4.60;;
46561;SDS011;32289;42.688;23.330;2023-02-28T15:39:25;5.93;;;3.37;;
46561;SDS011;32289;42.688;23.330;2023-02-28T15:43:12;9.98;;;3.75;;
46561;SDS011;32289;42.688;23.330;2023-02-28T15:50:47;7.35;;;3.10;;
46561;SDS011;32289;42.688;23.330;2023-02-28T15:54:41;9.75;;;3.35;;
46561;SDS011;32289;42.688;23.330;2023-02-28T15:58:24;10.23;;;3.92;;
46561;SDS011;32289;42.688;23.330;2023-02-28T16:06:07;7.47;;;4.13;;
46561;SDS011;32289;42.688;23.330;2023-02-28T16:10:00;8.43;;;4.00;;
46561;SDS011;32289;42.688;23.330;2023-02-28T16:13:41;16.33;;;7.85;;
46561;SDS011;32289;42.688;23.330;2023-02-28T16:17:24;10.90;;;5.70;;
46561;SDS011;32289;42.688;23.330;2023-02-28T16:21:06;10.40;;;5.57;;
46561;SDS011;32289;42.688;23.330;2023-02-28T16:24:48;16.20;;;7.43;;
46561;SDS011;32289;42.688;23.330;2023-02-28T16:28:33;10.48;;;5.43;;
46561;SDS011;32289;42.688;23.330;2023-02-28T16:32:16;6.15;;;3.75;;
46561;SDS011;32289;42.688;23.330;2023-02-28T16:35:57;10.07;;;4.95;;
46561;SDS011;32289;42.688;23.330;2023-02-28T16:39:38;7.68;;;3.03;;
46561;SDS011;32289;42.688;23.330;2023-02-28T16:43:23;9.30;;;3.97;;
46561;SDS011;32289;42.688;23.330;2023-02-28T16:47:06;7.32;;;2.80;;
46561;SDS011;32289;42.688;23.330;2023-02-28T16:50:49;7.72;;;3.00;;
46561;SDS011;32289;42.688;23.330;2023-02-28T16:54:29;9.70;;;3.58;;
46561;SDS011;32289;42.688;23.330;2023-02-28T16:58:15;6.38;;;3.08;;
46561;SDS011;32289;42.688;23.330;2023-02-28T17:01:57;9.63;;;4.65;;
46561;SDS011;32289;42.688;23.330;2023-02-28T17:05:38;6.47;;;3.30;;
46561;SDS011;32289;42.688;23.330;2023-02-28T17:09:20;7.43;;;3.10;;
46561;SDS011;32289;42.688;23.330;2023-02-28T17:13:02;6.20;;;3.35;;
46561;SDS011;32289;42.688;23.330;2023-02-28T17:16:43;8.48;;;2.95;;
46561;SDS011;32289;42.688;23.330;2023-02-28T17:20:24;11.02;;;3.25;;
46561;SDS011;32289;42.688;23.330;2023-02-28T17:24:07;4.75;;;2.25;;
46561;SDS011;32289;42.688;23.330;2023-02-28T17:27:49;10.43;;;3.78;;
46561;SDS011;32289;42.688;23.330;2023-02-28T17:31:31;8.35;;;3.85;;
46561;SDS011;32289;42.688;23.330;2023-02-28T17:35:13;3.53;;;1.70;;
46561;SDS011;32289;42.688;23.330;2023-02-28T17:38:54;4.32;;;2.03;;
46561;SDS011;32289;42.688;23.330;2023-02-28T17:42:38;4.78;;;2.03;;
46561;SDS011;32289;42.688;23.330;2023-02-28T17:46:20;4.43;;;1.67;;
46561;SDS011;32289;42.688;23.330;2023-02-28T17:50:04;6.20;;;2.28;;
46561;SDS011;32289;42.688;23.330;2023-02-28T17:53:45;7.20;;;2.65;;
46561;SDS011;32289;42.688;23.330;2023-02-28T17:57:26;3.83;;;1.80;;
46561;SDS011;32289;42.688;23.330;2023-02-28T18:01:07;4.55;;;2.03;;
46561;SDS011;32289;42.688;23.330;2023-02-28T18:04:48;2.85;;;1.48;;
46561;SDS011;32289;42.688;23.330;2023-02-28T18:08:29;3.65;;;1.85;;
46561;SDS011;32289;42.688;23.330;2023-02-28T18:12:10;3.22;;;1.48;;
46561;SDS011;32289;42.688;23.330;2023-02-28T18:15:51;3.45;;;1.80;;
46561;SDS011;32289;42.688;23.330;2023-02-28T18:19:32;3.88;;;2.42;;
46561;SDS011;32289;42.688;23.330;2023-02-28T18:23:13;2.50;;;1.35;;
46561;SDS011;32289;42.688;23.330;2023-02-28T18:26:53;6.95;;;1.98;;
46561;SDS011;32289;42.688;23.330;2023-02-28T18:30:35;3.72;;;1.90;;
46561;SDS011;32289;42.688;23.330;2023-02-28T18:34:16;3.95;;;1.80;;
46561;SDS011;32289;42.688;23.330;2023-02-28T18:37:57;3.70;;;2.10;;
46561;SDS011;32289;42.688;23.330;2023-02-28T18:41:38;3.80;;;1.80;;
46561;SDS011;32289;42.688;23.330;2023-02-28T18:45:19;5.47;;;2.63;;
46561;SDS011;32289;42.688;23.330;2023-02-28T18:48:59;6.30;;;2.05;;
46561;SDS011;32289;42.688;23.330;2023-02-28T18:52:40;7.75;;;1.88;;
46561;SDS011;32289;42.688;23.330;2023-02-28T18:56:22;6.30;;;2.38;;
46561;SDS011;32289;42.688;23.330;2023-02-28T19:00:03;3.78;;;1.73;;
46561;SDS011;32289;42.688;23.330;2023-02-28T19:03:45;7.93;;;2.75;;
46561;SDS011;32289;42.688;23.330;2023-02-28T19:07:26;5.57;;;2.35;;
46561;SDS011;32289;42.688;23.330;2023-02-28T19:11:08;4.88;;;2.28;;
46561;SDS011;32289;42.688;23.330;2023-02-28T19:14:50;5.50;;;2.45;;
46561;SDS011;32289;42.688;23.330;2023-02-28T19:18:31;3.95;;;2.15;;
46561;SDS011;32289;42.688;23.330;2023-02-28T19:22:12;4.28;;;3.00;;
46561;SDS011;32289;42.688;23.330;2023-02-28T19:25:52;4.70;;;2.30;;
46561;SDS011;32289;42.688;23.330;2023-02-28T19:29:35;8.32;;;2.67;;
46561;SDS011;32289;42.688;23.330;2023-02-28T19:33:16;8.00;;;3.22;;
46561;SDS011;32289;42.688;23.330;2023-02-28T19:36:56;5.88;;;3.03;;
46561;SDS011;32289;42.688;23.330;2023-02-28T19:40:37;6.10;;;2.75;;
46561;SDS011;32289;42.688;23.330;2023-02-28T19:44:18;6.20;;;2.35;;
46561;SDS011;32289;42.688;23.330;2023-02-28T19:47:59;4.32;;;2.40;;
46561;SDS011;32289;42.688;23.330;2023-02-28T19:51:40;6.88;;;2.72;;
46561;SDS011;32289;42.688;23.330;2023-02-28T19:55:22;5.40;;;2.42;;
46561;SDS011;32289;42.688;23.330;2023-02-28T19:59:03;3.70;;;1.92;;
46561;SDS011;32289;42.688;23.330;2023-02-28T20:02:43;4.90;;;2.60;;
46561;SDS011;32289;42.688;23.330;2023-02-28T20:06:24;5.38;;;2.58;;
46561;SDS011;32289;42.688;23.330;2023-02-28T20:10:05;5.25;;;2.35;;
46561;SDS011;32289;42.688;23.330;2023-02-28T20:13:46;5.35;;;2.53;;
46561;SDS011;32289;42.688;23.330;2023-02-28T20:17:27;7.78;;;3.28;;
46561;SDS011;32289;42.688;23.330;2023-02-28T20:21:09;7.97;;;3.25;;
46561;SDS011;32289;42.688;23.330;2023-02-28T20:24:51;6.97;;;3.65;;
46561;SDS011;32289;42.688;23.330;2023-02-28T20:28:33;7.07;;;3.92;;
46561;SDS011;32289;42.688;23.330;2023-02-28T20:32:13;6.88;;;3.30;;
46561;SDS011;32289;42.688;23.330;2023-02-28T20:35:58;7.18;;;3.65;;
46561;SDS011;32289;42.688;23.330;2023-02-28T20:39:39;6.95;;;3.28;;
46561;SDS011;32289;42.688;23.330;2023-02-28T20:43:20;7.72;;;3.33;;
46561;SDS011;32289;42.688;23.330;2023-02-28T20:47:02;9.23;;;3.92;;
46561;SDS011;32289;42.688;23.330;2023-02-28T20:50:47;10.80;;;3.60;;
46561;SDS011;32289;42.688;23.330;2023-02-28T20:54:28;7.32;;;3.75;;
46561;SDS011;32289;42.688;23.330;2023-02-28T20:58:10;8.48;;;4.63;;
46561;SDS011;32289;42.688;23.330;2023-02-28T21:01:50;6.85;;;3.33;;
46561;SDS011;32289;42.688;23.330;2023-02-28T21:05:32;6.00;;;3.15;;
46561;SDS011;32289;42.688;23.330;2023-02-28T21:09:13;7.25;;;3.35;;
46561;SDS011;32289;42.688;23.330;2023-02-28T21:12:54;7.43;;;3.17;;
46561;SDS011;32289;42.688;23.330;2023-02-28T21:16:36;6.13;;;3.50;;
46561;SDS011;32289;42.688;23.330;2023-02-28T21:20:17;7.30;;;3.03;;
46561;SDS011;32289;42.688;23.330;2023-02-28T21:24:00;6.97;;;2.70;;
46561;SDS011;32289;42.688;23.330;2023-02-28T21:27:41;5.15;;;2.55;;
46561;SDS011;32289;42.688;23.330;2023-02-28T21:31:23;5.75;;;2.67;;
46561;SDS011;32289;42.688;23.330;2023-02-28T21:35:05;7.03;;;3.28;;
46561;SDS011;32289;42.688;23.330;2023-02-28T21:38:46;5.35;;;3.08;;
46561;SDS011;32289;42.688;23.330;2023-02-28T21:42:30;6.10;;;2.15;;
46561;SDS011;32289;42.688;23.330;2023-02-28T21:46:11;6.75;;;2.70;;
46561;SDS011;32289;42.688;23.330;2023-02-28T21:49:54;5.20;;;2.65;;
46561;SDS011;32289;42.688;23.330;2023-02-28T21:53:35;7.50;;;2.83;;
46561;SDS011;32289;42.688;23.330;2023-02-28T21:57:17;5.63;;;2.72;;
46561;SDS011;32289;42.688;23.330;2023-02-28T22:01:08;6.75;;;2.63;;
46561;SDS011;32289;42.688;23.330;2023-02-28T22:04:50;4.72;;;2.65;;
46561;SDS011;32289;42.688;23.330;2023-02-28T22:08:31;5.20;;;2.97;;
46561;SDS011;32289;42.688;23.330;2023-02-28T22:12:12;6.00;;;2.75;;
46561;SDS011;32289;42.688;23.330;2023-02-28T22:15:52;4.85;;;2.92;;
46561;SDS011;32289;42.688;23.330;2023-02-28T22:19:33;6.60;;;2.15;;
46561;SDS011;32289;42.688;23.330;2023-02-28T22:23:14;6.20;;;2.92;;
46561;SDS011;32289;42.688;23.330;2023-02-28T22:26:55;6.65;;;3.30;;
46561;SDS011;32289;42.688;23.330;2023-02-28T22:30:36;7.15;;;3.35;;
46561;SDS011;32289;42.688;23.330;2023-02-28T22:34:16;4.53;;;2.45;;
46561;SDS011;32289;42.688;23.330;2023-02-28T22:37:57;5.45;;;2.22;;
46561;SDS011;32289;42.688;23.330;2023-02-28T22:41:38;5.13;;;2.78;;
46561;SDS011;32289;42.688;23.330;2023-02-28T22:45:19;6.47;;;2.13;;
46561;SDS011;32289;42.688;23.330;2023-02-28T22:49:00;3.83;;;1.98;;
46561;SDS011;32289;42.688;23.330;2023-02-28T22:52:42;6.85;;;1.95;;
46561;SDS011;32289;42.688;23.330;2023-02-28T22:56:23;4.75;;;1.73;;
46561;SDS011;32289;42.688;23.330;2023-02-28T23:00:07;3.75;;;1.88;;
46561;SDS011;32289;42.688;23.330;2023-02-28T23:03:54;4.00;;;1.75;;
46561;SDS011;32289;42.688;23.330;2023-02-28T23:07:35;3.60;;;1.88;;
46561;SDS011;32289;42.688;23.330;2023-02-28T23:11:17;3.80;;;1.50;;
46561;SDS011;32289;42.688;23.330;2023-02-28T23:15:00;2.00;;;1.05;;
46561;SDS011;32289;42.688;23.330;2023-02-28T23:18:41;2.65;;;1.48;;
46561;SDS011;32289;42.688;23.330;2023-02-28T23:22:21;4.10;;;1.38;;
46561;SDS011;32289;42.688;23.330;2023-02-28T23:26:05;4.18;;;1.98;;
46561;SDS011;32289;42.688;23.330;2023-02-28T23:29:47;3.13;;;1.70;;
46561;SDS011;32289;42.688;23.330;2023-02-28T23:33:27;2.97;;;1.40;;
46561;SDS011;32289;42.688;23.330;2023-02-28T23:37:08;3.38;;;1.92;;
46561;SDS011;32289;42.688;23.330;2023-02-28T23:40:49;4.38;;;1.38;;
46561;SDS011;32289;42.688;23.330;2023-02-28T23:44:29;3.15;;;1.23;;
46561;SDS011;32289;42.688;23.330;2023-02-28T23:48:11;3.28;;;1.50;;
46561;SDS011;32289;42.688;23.330;2023-02-28T23:51:52;3.88;;;1.67;;
46561;SDS011;32289;42.688;23.330;2023-02-28T23:55:33;2.10;;;1.05;;
46561;SDS011;32289;42.688;23.330;2023-02-28T23:59:13;5.85;;;1.50;;
